Kennedy, AL (35574)

8:22 PM CDT on July 22, 2014 (GMT -0500)
Vernon Alabama (KALSULLI2) Elev 372 ft | 33.79 °N, 88.21 °W | Change Station

Current weather conditions updated 14 minutes ago

Overcast
Overcast
75.2 °F
Feels Like 73 °F
N
0.0
Wind Variable Wind from NNE
Gusts 0.0 mph

Tomorrow is forecast to be Warmer than today. A few thunderstorms possible.

Today
High -- | Low -- °F
--% Chance of Precip.
Yesterday
High -- | Low -- °F
Precip. -- in
5:56 AM 7:59 PM
Waning Crescent, 14% visible
Pressure 30.06 in
Visibility 10.0 miles
Clouds Clear
Heat Index 73 °F
Dew Point 74 °F
Humidity 96%
Rainfall 0.00 in
Snow Depth Not available.
UV 0 out of 12
Pollen 3.40 out of 12
Air Quality Not available.
Flu Activity Not available.
METAR KCBM 230058Z AUTO 36003KT 10SM CLR 25/24 A3005 RMK AO2 LTG DSNT S CIG 210 RWY31C SLP177 T02520242 $

More Conditions Fewer Conditions

Pressure 30.06 in
Visibility 10.0 miles
Clouds Clear
Heat Index 73 °F
Dew Point 74 °F
Humidity 96%
Rainfall 0.00 in
Snow Depth Not available.
UV 0 out of 12
Pollen 3.40 out of 12
Air Quality Not available.
Flu Activity Not available.
METAR KCBM 230058Z AUTO 36003KT 10SM CLR 25/24 A3005 RMK AO2 LTG DSNT S CIG 210 RWY31C SLP177 T02520242 $

More Conditions Fewer Conditions

10-Day Weather Forecast

Almanac

Astronomy

Jul. 22, 2014 Rise Set
Actual Time 5:56 AM CDT 7:59 PM CDT
Civil Twilight 5:29 AM CDT 8:26 PM CDT
Nautical Twilight 4:55 AM CDT 9:00 PM CDT
Astronomical Twilight 4:18 AM CDT 9:37 PM CDT
Moon 2:27 AM CDT (7/22) 4:37 PM CDT (7/22)
Length of Visible Light 14h 57m
Length of Day
14h 02m
Tomorrow will be 1m 18s shorter.
Waning Crescent, 14% of the Moon is Illuminated
Today
Waning Crescent
Jul 26
New
Aug 3
First Quarter
Aug 10
Full
Aug 17
Last Quarter

Today's Extremes

State Highs State Lows

Community

WunderPhotos

Upload Photos

1,736,423 photos uploaded!

Nearby

Snow Depth

Station Depth Elevation
No new snow has been reported.

Earthquake Activity

City Distance Mag. Time & Date
No recent earthquake activity has been reported nearby.
Minimum magnitude displayed is 2.5.

Coastal Water Temperatures

Place Temperature
No Stations Reporting

Nearby Weather Stations

Station Location Temp. Heat Index Dew Point Humidity Wind Precip. Elev Updated Type
Vernon Alabama, Sulligent, AL 75.2 °F 73 °F 74 °F 96% NNE  at  0.0 mph 0.00 in / hr 372 ft 8:08 PM CDT Normal
Shiloh, Steens, MS 77.4 °F 79 °F 73 °F 86% West  at  0.0 mph - / hr 276 ft 8:07 PM CDT Normal
Lawrence St., Caledonia, MS 77.2 °F 79 °F 74 °F 91% NE  at  0.0 mph - / hr 295 ft 8:10 PM CDT Normal
Bethany, Buhl, AL 78.8 °F 82 °F 75 °F 87% North  at  0.0 mph 0.00 in / hr 367 ft 8:18 PM CDT Normal

Show More Stations Show Fewer Stations